Time;durP1;ratioP1;P1;durP2;ratioP2;P2;SDS_P1;SDS_P2;PMS_P1;PMS_P2;Temp;Humidity;BMP_temperature;BMP_pressure;BME280_temperature;BME280_humidity;BME280_pressure;Samples;Min_cycle;Max_cycle;Signal;HPM_P1;HPM_P2
2023/12/04 00:02:12;;;;;;;;;;;;;;;;;;5053431;28;19970;-76
2023/12/04 00:04:38;;;;;;;;;;;;;;;;;;5053022;28;20423;-76
2023/12/04 00:07:04;;;;;;;;;;;;;;;;;;5053419;28;19909;-76
2023/12/04 00:09:30;;;;;;;;;;;;;;;;;;5053042;28;19955;-76
2023/12/04 00:11:56;;;;;;;;;;;;;;;;;;5053361;28;19908;-76
2023/12/04 00:14:22;;;;;;;;;;;;;;;;;;5053376;28;19915;-76
2023/12/04 00:16:48;;;;;;;;;;;;;;;;;;5052941;28;19956;-76
2023/12/04 00:19:14;;;;;;;;;;;;;;;;;;5053073;28;19947;-76
2023/12/04 00:21:40;;;;;;;;;;;;;;;;;;5053182;28;19909;-76
2023/12/04 00:24:06;;;;;;;;;;;;;;;;;;5052824;28;19909;-76
2023/12/04 00:26:32;;;;;;;;;;;;;;;;;;5053187;28;20421;-77
2023/12/04 00:28:58;;;;;;;;;;;;;;;;;;5053211;28;20004;-77
2023/12/04 00:31:24;;;;;;;;;;;;;;;;;;5052791;28;19916;-77
2023/12/04 00:33:50;;;;;;;;;;;;;;;;;;5052786;28;20345;-76
2023/12/04 00:36:16;;;;;;;;;;;;;;;;;;5051074;28;20007;-76
2023/12/04 00:38:42;;;;;;;;;;;;;;;;;;5052215;28;19928;-76
2023/12/04 00:41:08;;;;;;;;;;;;;;;;;;5052857;28;19913;-77
2023/12/04 00:43:34;;;;;;;;;;;;;;;;;;5055460;28;19939;-77
2023/12/04 00:46:00;;;;;;;;;;;;;;;;;;5055986;28;19908;-76
2023/12/04 00:48:26;;;;;;;;;;;;;;;;;;5056406;28;19954;-76
2023/12/04 00:50:52;;;;;;;;;;;;;;;;;;5056313;28;19913;-76
2023/12/04 00:53:18;;;;;;;;;;;;;;;;;;5055894;28;19915;-76
2023/12/04 00:55:44;;;;;;;;;;;;;;;;;;5056280;28;19952;-76
2023/12/04 00:58:10;;;;;;;;;;;;;;;;;;5054667;28;19909;-76
2023/12/04 01:00:36;;;;;;;;;;;;;;;;;;5055684;28;19960;-76
2023/12/04 01:03:02;;;;;;;;;;;;;;;;;;5056286;28;19920;-76
2023/12/04 01:05:28;;;;;;;;;;;;;;;;;;5056022;28;19908;-76
2023/12/04 01:07:54;;;;;;;;;;;;;;;;;;5055693;28;19909;-77
2023/12/04 01:10:20;;;;;;;;;;;;;;;;;;5056172;28;19909;-76
2023/12/04 01:12:45;;;;;;;;;;;;;;;;;;5055659;28;19909;-76
2023/12/04 01:15:11;;;;;;;;;;;;;;;;;;5055824;28;20371;-76
2023/12/04 01:17:37;;;;;;;;;;;;;;;;;;5054365;28;20253;-76
2023/12/04 01:20:04;;;;;;;;;;;;;;;;;;5055165;28;19971;-76
2023/12/04 01:22:30;;;;;;;;;;;;;;;;;;5055800;28;19909;-76
2023/12/04 01:24:56;;;;;;;;;;;;;;;;;;5055597;28;20284;-76
2023/12/04 01:27:22;;;;;;;;;;;;;;;;;;5055223;28;19909;-76
2023/12/04 01:29:48;;;;;;;;;;;;;;;;;;5055621;28;20316;-77
2023/12/04 01:32:14;;;;;;;;;;;;;;;;;;5055394;28;19913;-77
2023/12/04 01:34:40;;;;;;;;;;;;;;;;;;5055048;28;19947;-77
2023/12/04 01:37:06;;;;;;;;;;;;;;;;;;5055508;28;19962;-76
2023/12/04 01:39:32;;;;;;;;;;;;;;;;;;5055340;28;19917;-76
2023/12/04 01:41:58;;;;;;;;;;;;;;;;;;5054864;28;19916;-76
2023/12/04 01:44:24;;;;;;;;;;;;;;;;;;5055180;28;19909;-76
2023/12/04 01:46:50;;;;;;;;;;;;;;;;;;5055324;28;20361;-76
2023/12/04 01:49:16;;;;;;;;;;;;;;;;;;5054829;28;19996;-76
2023/12/04 01:51:42;;;;;;;;;;;;;;;;;;5055357;28;20325;-76
2023/12/04 01:54:08;;;;;;;;;;;;;;;;;;5054863;28;19909;-76
2023/12/04 01:56:34;;;;;;;;;;;;;;;;;;5054750;28;19909;-76
2023/12/04 01:59:00;;;;;;;;;;;;;;;;;;5054973;28;19923;-77
2023/12/04 02:01:25;;;;;;;;;;;;;;;;;;5055088;28;19915;-76
2023/12/04 02:03:51;;;;;;;;;;;;;;;;;;5054468;28;20345;-76
2023/12/04 02:06:20;;;;;;;;;;;;;;;;;;5054588;28;19912;-77
2023/12/04 02:08:46;;;;;;;;;;;;;;;;;;5054975;28;19909;-76
2023/12/04 02:11:12;;;;;;;;;;;;;;;;;;5054476;28;19967;-77
2023/12/04 02:13:38;;;;;;;;;;;;;;;;;;5054759;28;19908;-76
2023/12/04 02:16:07;;;;;;;;;;;;;;;;;;5054254;28;19909;-76
2023/12/04 02:18:33;;;;;;;;;;;;;;;;;;5054555;28;19925;-76
2023/12/04 02:20:59;;;;;;;;;;;;;;;;;;5055422;28;19909;-76
2023/12/04 02:23:25;;;;;;;;;;;;;;;;;;5054249;28;19935;-76
2023/12/04 02:25:51;;;;;;;;;;;;;;;;;;5054348;28;19999;-76
2023/12/04 02:28:17;;;;;;;;;;;;;;;;;;5054330;28;19913;-76
2023/12/04 02:30:43;;;;;;;;;;;;;;;;;;5054093;28;19919;-76
2023/12/04 02:33:09;;;;;;;;;;;;;;;;;;5054598;28;19909;-76
2023/12/04 02:35:35;;;;;;;;;;;;;;;;;;5054252;28;19979;-75
2023/12/04 02:38:01;;;;;;;;;;;;;;;;;;5053730;28;19916;-75
2023/12/04 02:40:27;;;;;;;;;;;;;;;;;;5054257;28;19917;-75
2023/12/04 02:42:53;;;;;;;;;;;;;;;;;;5054450;28;19935;-75
2023/12/04 02:45:19;;;;;;;;;;;;;;;;;;5053907;28;19908;-75
2023/12/04 02:47:45;;;;;;;;;;;;;;;;;;5054376;28;19916;-75
2023/12/04 02:50:11;;;;;;;;;;;;;;;;;;5054259;28;19909;-76
2023/12/04 02:52:37;;;;;;;;;;;;;;;;;;5053867;28;19916;-75
2023/12/04 02:55:02;;;;;;;;;;;;;;;;;;5054213;28;19917;-75
2023/12/04 02:57:28;;;;;;;;;;;;;;;;;;5054484;28;19909;-75
2023/12/04 02:59:54;;;;;;;;;;;;;;;;;;5053774;28;19917;-75
2023/12/04 03:02:20;;;;;;;;;;;;;;;;;;5054196;28;20277;-75
2023/12/04 03:04:46;;;;;;;;;;;;;;;;;;5053596;28;19909;-76
2023/12/04 03:07:12;;;;;;;;;;;;;;;;;;5053736;28;20010;-76
2023/12/04 03:09:38;;;;;;;;;;;;;;;;;;5053984;28;19909;-76
2023/12/04 03:12:04;;;;;;;;;;;;;;;;;;5054233;28;19999;-76
2023/12/04 03:14:30;;;;;;;;;;;;;;;;;;5053496;28;20035;-75
2023/12/04 03:16:56;;;;;;;;;;;;;;;;;;5053652;28;19913;-73
2023/12/04 03:19:22;;;;;;;;;;;;;;;;;;5053784;28;19921;-75
2023/12/04 03:21:48;;;;;;;;;;;;;;;;;;5053787;28;19954;-75
2023/12/04 03:24:14;;;;;;;;;;;;;;;;;;5052504;28;19909;-75
2023/12/04 03:26:40;;;;;;;;;;;;;;;;;;5053374;28;19916;-75
2023/12/04 03:29:06;;;;;;;;;;;;;;;;;;5053789;28;19908;-75
2023/12/04 03:31:34;;;;;;;;;;;;;;;;;;5053786;28;19908;-76
2023/12/04 03:34:00;;;;;;;;;;;;;;;;;;5053497;28;20417;-77
2023/12/04 03:36:25;;;;;;;;;;;;;;;;;;5053674;28;19908;-77
2023/12/04 03:38:51;;;;;;;;;;;;;;;;;;5054069;28;19935;-77
2023/12/04 03:41:17;;;;;;;;;;;;;;;;;;5053263;28;20361;-77
2023/12/04 03:43:43;;;;;;;;;;;;;;;;;;5053668;28;19977;-77
2023/12/04 03:46:09;;;;;;;;;;;;;;;;;;5053672;28;20405;-77
2023/12/04 03:48:35;;;;;;;;;;;;;;;;;;5053498;28;20293;-76
2023/12/04 03:51:01;;;;;;;;;;;;;;;;;;5053578;28;19909;-77
2023/12/04 03:53:27;;;;;;;;;;;;;;;;;;5053507;28;19915;-76
2023/12/04 03:55:53;;;;;;;;;;;;;;;;;;5053331;28;19908;-77
2023/12/04 03:58:19;;;;;;;;;;;;;;;;;;5053600;28;19908;-77
2023/12/04 04:00:45;;;;;;;;;;;;;;;;;;5053670;28;19955;-77
2023/12/04 04:03:11;;;;;;;;;;;;;;;;;;5053098;28;19909;-77
2023/12/04 04:05:37;;;;;;;;;;;;;;;;;;5053437;28;19909;-76
2023/12/04 04:08:05;;;;;;;;;;;;;;;;;;5053573;28;19912;-76
2023/12/04 04:10:31;;;;;;;;;;;;;;;;;;5052955;28;19916;-77
2023/12/04 04:12:57;;;;;;;;;;;;;;;;;;5053352;28;20424;-77
2023/12/04 04:15:23;;;;;;;;;;;;;;;;;;5053409;28;19963;-76
2023/12/04 04:17:49;;;;;;;;;;;;;;;;;;5054293;28;19948;-76
2023/12/04 04:20:15;;;;;;;;;;;;;;;;;;5057114;28;19917;-76
2023/12/04 04:22:41;;;;;;;;;;;;;;;;;;5056909;28;19909;-76
2023/12/04 04:25:07;;;;;;;;;;;;;;;;;;5057072;28;19932;-76
2023/12/04 04:27:33;;;;;;;;;;;;;;;;;;5057805;28;19909;-76
2023/12/04 04:29:59;;;;;;;;;;;;;;;;;;5056939;28;19909;-77
2023/12/04 04:32:25;;;;;;;;;;;;;;;;;;5057013;28;19916;-76
2023/12/04 04:34:51;;;;;;;;;;;;;;;;;;5056944;28;20352;-77
2023/12/04 04:37:17;;;;;;;;;;;;;;;;;;5056963;28;20410;-77
2023/12/04 04:39:43;;;;;;;;;;;;;;;;;;5056706;28;20331;-77
2023/12/04 04:42:09;;;;;;;;;;;;;;;;;;5056723;28;19916;-77
2023/12/04 04:44:35;;;;;;;;;;;;;;;;;;5056382;28;19916;-77
2023/12/04 04:47:01;;;;;;;;;;;;;;;;;;5056599;28;19962;-77
2023/12/04 04:49:27;;;;;;;;;;;;;;;;;;5056576;28;20000;-76
2023/12/04 04:51:53;;;;;;;;;;;;;;;;;;5056116;28;20003;-76
2023/12/04 04:54:19;;;;;;;;;;;;;;;;;;5056446;28;19913;-76
2023/12/04 04:56:45;;;;;;;;;;;;;;;;;;5056383;28;20379;-77
2023/12/04 04:59:11;;;;;;;;;;;;;;;;;;5055922;28;19917;-77
2023/12/04 05:01:37;;;;;;;;;;;;;;;;;;5056735;28;19954;-76
2023/12/04 05:04:03;;;;;;;;;;;;;;;;;;5056992;28;20411;-77
2023/12/04 05:06:29;;;;;;;;;;;;;;;;;;5055885;28;19995;-76
2023/12/04 05:08:55;;;;;;;;;;;;;;;;;;5056285;28;19915;-77
2023/12/04 05:11:21;;;;;;;;;;;;;;;;;;5056201;28;19912;-76
2023/12/04 05:13:47;;;;;;;;;;;;;;;;;;5055747;28;19963;-76
2023/12/04 05:16:13;;;;;;;;;;;;;;;;;;5054795;28;19921;-76
2023/12/04 05:18:38;;;;;;;;;;;;;;;;;;5055849;28;19964;-76
2023/12/04 05:21:04;;;;;;;;;;;;;;;;;;5055586;28;19909;-76
2023/12/04 05:23:30;;;;;;;;;;;;;;;;;;5055927;28;19909;-76
2023/12/04 05:25:56;;;;;;;;;;;;;;;;;;5055764;28;19963;-76
2023/12/04 05:28:22;;;;;;;;;;;;;;;;;;5055366;28;20003;-77
2023/12/04 05:30:48;;;;;;;;;;;;;;;;;;5056191;28;19916;-77
2023/12/04 05:33:14;;;;;;;;;;;;;;;;;;5055369;28;19954;-77
2023/12/04 05:35:40;;;;;;;;;;;;;;;;;;5055740;28;19909;-77
2023/12/04 05:38:07;;;;;;;;;;;;;;;;;;5055845;28;20349;-77
2023/12/04 05:40:33;;;;;;;;;;;;;;;;;;5055137;28;20396;-77
2023/12/04 05:42:59;;;;;;;;;;;;;;;;;;5055804;28;19909;-77
2023/12/04 05:45:25;;;;;;;;;;;;;;;;;;5055480;28;19909;-77
2023/12/04 05:47:52;;;;;;;;;;;;;;;;;;5055138;28;20357;-76
2023/12/04 05:50:18;;;;;;;;;;;;;;;;;;5055666;28;19955;-76
2023/12/04 05:52:44;;;;;;;;;;;;;;;;;;5055301;28;19908;-76
2023/12/04 05:55:10;;;;;;;;;;;;;;;;;;5054883;28;19931;-76
2023/12/04 05:57:36;;;;;;;;;;;;;;;;;;5055780;28;20349;-76
2023/12/04 06:00:02;;;;;;;;;;;;;;;;;;5055179;28;19924;-77
2023/12/04 06:02:30;;;;;;;;;;;;;;;;;;5054654;28;19948;-76
2023/12/04 06:04:56;;;;;;;;;;;;;;;;;;5055075;28;19909;-76
2023/12/04 06:07:21;;;;;;;;;;;;;;;;;;5055005;28;20258;-76
2023/12/04 06:09:47;;;;;;;;;;;;;;;;;;5054618;28;19963;-76
2023/12/04 06:12:13;;;;;;;;;;;;;;;;;;5054938;28;19909;-76
2023/12/04 06:14:39;;;;;;;;;;;;;;;;;;5054910;28;19993;-76
2023/12/04 06:17:06;;;;;;;;;;;;;;;;;;5053705;28;19909;-75
2023/12/04 06:19:32;;;;;;;;;;;;;;;;;;5054236;28;20323;-75
2023/12/04 06:21:58;;;;;;;;;;;;;;;;;;5051599;28;19916;-72
2023/12/04 06:24:24;;;;;;;;;;;;;;;;;;5053212;28;20364;-71
2023/12/04 06:26:50;;;;;;;;;;;;;;;;;;5053395;28;19909;-76
2023/12/04 06:29:16;;;;;;;;;;;;;;;;;;5053358;28;19913;-75
2023/12/04 06:31:42;;;;;;;;;;;;;;;;;;5051088;28;20358;-73
2023/12/04 06:34:08;;;;;;;;;;;;;;;;;;5050078;28;19917;-72
2023/12/04 06:36:34;;;;;;;;;;;;;;;;;;5051662;28;19954;-69
2023/12/04 06:39:00;;;;;;;;;;;;;;;;;;5045607;28;19921;-69
2023/12/04 06:41:26;;;;;;;;;;;;;;;;;;5043401;28;19959;-69
2023/12/04 06:43:52;;;;;;;;;;;;;;;;;;5050469;28;19909;-70
2023/12/04 06:46:18;;;;;;;;;;;;;;;;;;5050281;28;20341;-69
2023/12/04 06:48:44;;;;;;;;;;;;;;;;;;5049224;28;20082;-68
2023/12/04 06:51:10;;;;;;;;;;;;;;;;;;5050573;28;19916;-69
2023/12/04 06:53:36;;;;;;;;;;;;;;;;;;5043720;28;19913;-69
2023/12/04 06:56:02;;;;;;;;;;;;;;;;;;5044525;28;19921;-69
2023/12/04 06:58:28;;;;;;;;;;;;;;;;;;5056483;28;20368;-67
2023/12/04 07:00:55;;;;;;;;;;;;;;;;;;5070362;28;19961;-68
2023/12/04 07:03:21;;;;;;;;;;;;;;;;;;5050524;28;19913;-68
2023/12/04 07:05:47;;;;;;;;;;;;;;;;;;5050830;28;19924;-68
2023/12/04 07:08:13;;;;;;;;;;;;;;;;;;5050367;28;19913;-71
2023/12/04 07:10:40;;;;;;;;;;;;;;;;;;5059579;28;19967;-70
2023/12/04 07:13:05;;;;;;;;;;;;;;;;;;5058605;28;19916;-70
2023/12/04 07:15:31;;;;;;;;;;;;;;;;;;5047729;28;19913;-69
2023/12/04 07:17:57;;;;;;;;;;;;;;;;;;5051792;28;19927;-69
2023/12/04 07:20:24;;;;;;;;;;;;;;;;;;5050397;28;19960;-70
2023/12/04 07:22:50;;;;;;;;;;;;;;;;;;5045245;28;19912;-69
2023/12/04 07:25:16;;;;;;;;;;;;;;;;;;5050407;28;19999;-69
2023/12/04 07:27:42;;;;;;;;;;;;;;;;;;5048634;28;19995;-70
2023/12/04 07:30:08;;;;;;;;;;;;;;;;;;5049214;28;20051;-69
2023/12/04 07:32:35;;;;;;;;;;;;;;;;;;5049333;28;19917;-70
2023/12/04 07:35:01;;;;;;;;;;;;;;;;;;5051012;28;19909;-75
2023/12/04 07:37:27;;;;;;;;;;;;;;;;;;5050877;28;20280;-71
2023/12/04 07:39:53;;;;;;;;;;;;;;;;;;5050839;28;20351;-69
2023/12/04 07:42:19;;;;;;;;;;;;;;;;;;5049546;28;20433;-69
2023/12/04 07:44:45;;;;;;;;;;;;;;;;;;5056808;28;19921;-68
2023/12/04 07:47:11;;;;;;;;;;;;;;;;;;5050508;28;19913;-69
2023/12/04 07:49:37;;;;;;;;;;;;;;;;;;5064831;28;19920;-70
2023/12/04 07:52:03;;;;;;;;;;;;;;;;;;5052705;28;19927;-68
2023/12/04 07:54:29;;;;;;;;;;;;;;;;;;5053504;28;19967;-68
2023/12/04 07:56:55;;;;;;;;;;;;;;;;;;5055384;28;19913;-71
2023/12/04 07:59:21;;;;;;;;;;;;;;;;;;5050437;28;19974;-70
2023/12/04 08:01:47;;;;;;;;;;;;;;;;;;5054531;28;19956;-70
2023/12/04 08:04:13;;;;;;;;;;;;;;;;;;5051865;28;19917;-70
2023/12/04 08:06:39;;;;;;;;;;;;;;;;;;5051685;28;19923;-70
2023/12/04 08:09:09;;;;;;;;;;;;;;;;;;5051714;28;19956;-71
2023/12/04 08:11:35;;;;;;;;;;;;;;;;;;5053649;28;19908;-69
2023/12/04 08:14:01;;;;;;;;;;;;;;;;;;5053746;28;20407;-70
2023/12/04 08:16:28;;;;;;;;;;;;;;;;;;5053096;28;20364;-70
2023/12/04 08:18:54;;;;;;;;;;;;;;;;;;5049716;28;19924;-70
2023/12/04 08:21:20;;;;;;;;;;;;;;;;;;5049984;28;19909;-70
2023/12/04 08:23:46;;;;;;;;;;;;;;;;;;5049860;28;19966;-69
2023/12/04 08:26:12;;;;;;;;;;;;;;;;;;5052201;28;19924;-69
2023/12/04 08:28:41;;;;;;;;;;;;;;;;;;5052009;28;20317;-70
2023/12/04 08:31:08;;;;;;;;;;;;;;;;;;5051241;28;19978;-69
2023/12/04 08:33:34;;;;;;;;;;;;;;;;;;5051127;28;20404;-69
2023/12/04 08:36:00;;;;;;;;;;;;;;;;;;5050868;28;19928;-69
2023/12/04 08:38:26;;;;;;;;;;;;;;;;;;5052333;28;19913;-69
2023/12/04 08:40:52;;;;;;;;;;;;;;;;;;5050456;28;19913;-69
2023/12/04 08:43:18;;;;;;;;;;;;;;;;;;5049772;28;19931;-66
2023/12/04 08:45:44;;;;;;;;;;;;;;;;;;5051454;28;19917;-68
2023/12/04 08:48:10;;;;;;;;;;;;;;;;;;5051153;28;19916;-68
2023/12/04 08:50:37;;;;;;;;;;;;;;;;;;5051160;28;19909;-69
2023/12/04 08:53:03;;;;;;;;;;;;;;;;;;5056965;28;19924;-69
2023/12/04 08:55:29;;;;;;;;;;;;;;;;;;5044582;28;21449;-69
2023/12/04 08:57:55;;;;;;;;;;;;;;;;;;5043117;28;20289;-69
2023/12/04 09:00:21;;;;;;;;;;;;;;;;;;5036978;28;19924;-69
2023/12/04 09:02:48;;;;;;;;;;;;;;;;;;5046421;28;19920;-70
2023/12/04 09:05:14;;;;;;;;;;;;;;;;;;5048777;28;20435;-68
2023/12/04 09:07:40;;;;;;;;;;;;;;;;;;5044263;28;19920;-69
2023/12/04 09:10:06;;;;;;;;;;;;;;;;;;5049575;28;19909;-69
2023/12/04 09:12:35;;;;;;;;;;;;;;;;;;5049395;28;19916;-69
2023/12/04 09:15:01;;;;;;;;;;;;;;;;;;5045969;28;19917;-68
2023/12/04 09:17:27;;;;;;;;;;;;;;;;;;5048011;28;19921;-70
2023/12/04 09:19:54;;;;;;;;;;;;;;;;;;5047497;28;19975;-68
2023/12/04 09:22:20;;;;;;;;;;;;;;;;;;5046396;28;19917;-68
2023/12/04 09:24:46;;;;;;;;;;;;;;;;;;5046229;28;19916;-69
2023/12/04 09:27:15;;;;;;;;;;;;;;;;;;5050501;28;19913;-68
2023/12/04 09:29:41;;;;;;;;;;;;;;;;;;5052054;28;20328;-71
2023/12/04 09:32:07;;;;;;;;;;;;;;;;;;5052455;28;19912;-69
2023/12/04 09:34:33;;;;;;;;;;;;;;;;;;5050207;28;19920;-69
2023/12/04 09:36:59;;;;;;;;;;;;;;;;;;5051906;28;20316;-70
2023/12/04 09:39:24;;;;;;;;;;;;;;;;;;5050249;28;19917;-70
2023/12/04 09:41:51;;;;;;;;;;;;;;;;;;5051057;28;20289;-69
2023/12/04 09:44:17;;;;;;;;;;;;;;;;;;5047443;28;19999;-70
2023/12/04 09:46:43;;;;;;;;;;;;;;;;;;5050611;28;20015;-68
2023/12/04 09:49:09;;;;;;;;;;;;;;;;;;5046741;28;19913;-69
2023/12/04 09:51:35;;;;;;;;;;;;;;;;;;5042159;28;20266;-69
2023/12/04 09:54:01;;;;;;;;;;;;;;;;;;5058500;28;19963;-69
2023/12/04 09:56:27;;;;;;;;;;;;;;;;;;5046389;28;20272;-67
2023/12/04 09:58:54;;;;;;;;;;;;;;;;;;5047211;28;19925;-69
2023/12/04 10:01:20;;;;;;;;;;;;;;;;;;5046102;28;20432;-71
2023/12/04 10:03:46;;;;;;;;;;;;;;;;;;5048932;28;19913;-70
2023/12/04 10:06:12;;;;;;;;;;;;;;;;;;5048399;28;20287;-69
2023/12/04 10:08:38;;;;;;;;;;;;;;;;;;5045869;28;19982;-73
2023/12/04 10:11:04;;;;;;;;;;;;;;;;;;5046042;28;19962;-72
2023/12/04 10:13:30;;;;;;;;;;;;;;;;;;5047081;28;19917;-69
2023/12/04 10:15:56;;;;;;;;;;;;;;;;;;5048853;28;19913;-70
2023/12/04 10:18:22;;;;;;;;;;;;;;;;;;5049139;28;19967;-71
2023/12/04 10:20:48;;;;;;;;;;;;;;;;;;5049175;28;19917;-72
2023/12/04 10:23:15;;;;;;;;;;;;;;;;;;5049029;28;19913;-72
2023/12/04 10:25:41;;;;;;;;;;;;;;;;;;5050002;28;20011;-70
2023/12/04 10:28:07;;;;;;;;;;;;;;;;;;5052308;28;20016;-70
2023/12/04 10:30:39;;;;;;;;;;;;;;;;;;5050703;28;20284;-69
2023/12/04 10:33:05;;;;;;;;;;;;;;;;;;5047411;28;19928;-71
2023/12/04 10:35:31;;;;;;;;;;;;;;;;;;5051489;28;19912;-69
2023/12/04 10:37:57;;;;;;;;;;;;;;;;;;5051525;28;19966;-69
2023/12/04 10:40:23;;;;;;;;;;;;;;;;;;5050737;28;20388;-69
2023/12/04 10:42:49;;;;;;;;;;;;;;;;;;5031325;28;19920;-73
2023/12/04 10:45:15;;;;;;;;;;;;;;;;;;5021800;28;19921;-71
2023/12/04 10:47:41;;;;;;;;;;;;;;;;;;5025959;28;19924;-71
2023/12/04 10:50:07;;;;;;;;;;;;;;;;;;5015956;28;19917;-73
2023/12/04 10:52:33;;;;;;;;;;;;;;;;;;5014641;28;20010;-73
2023/12/04 10:54:59;;;;;;;;;;;;;;;;;;5031975;28;20362;-71
2023/12/04 10:57:25;;;;;;;;;;;;;;;;;;5021074;28;19974;-70
2023/12/04 10:59:51;;;;;;;;;;;;;;;;;;5017312;28;19929;-70
2023/12/04 11:02:17;;;;;;;;;;;;;;;;;;5051121;28;20007;-69
2023/12/04 11:04:43;;;;;;;;;;;;;;;;;;5050674;28;20048;-72
2023/12/04 11:07:09;;;;;;;;;;;;;;;;;;5052587;28;20003;-70
2023/12/04 11:09:35;;;;;;;;;;;;;;;;;;5051114;28;19913;-71
2023/12/04 11:12:01;;;;;;;;;;;;;;;;;;5048857;28;19966;-69
2023/12/04 11:14:27;;;;;;;;;;;;;;;;;;5051365;28;19920;-70
2023/12/04 11:16:59;;;;;;;;;;;;;;;;;;5052847;28;19995;-68
2023/12/04 11:19:25;;;;;;;;;;;;;;;;;;5021676;28;19928;-71
2023/12/04 11:21:51;;;;;;;;;;;;;;;;;;5018885;28;20023;-72
2023/12/04 11:24:17;;;;;;;;;;;;;;;;;;5017808;28;20436;-72
2023/12/04 11:26:43;;;;;;;;;;;;;;;;;;5017117;28;20018;-73
2023/12/04 11:29:10;;;;;;;;;;;;;;;;;;5021230;28;19953;-73
2023/12/04 11:31:35;;;;;;;;;;;;;;;;;;5019092;28;19967;-71
2023/12/04 11:34:01;;;;;;;;;;;;;;;;;;5016174;28;19913;-72
2023/12/04 11:36:27;;;;;;;;;;;;;;;;;;5026804;28;19917;-70
2023/12/04 11:38:53;;;;;;;;;;;;;;;;;;5047947;28;19917;-73
2023/12/04 11:41:19;;;;;;;;;;;;;;;;;;5041904;28;19913;-73
2023/12/04 11:43:45;;;;;;;;;;;;;;;;;;5033044;28;20526;-73
2023/12/04 11:46:11;;;;;;;;;;;;;;;;;;5031510;28;20016;-72
2023/12/04 11:48:37;;;;;;;;;;;;;;;;;;5039530;28;19913;-76
2023/12/04 11:51:03;;;;;;;;;;;;;;;;;;5049856;28;19919;-70
2023/12/04 11:53:29;;;;;;;;;;;;;;;;;;5051228;28;19909;-70
2023/12/04 11:55:56;;;;;;;;;;;;;;;;;;5050343;28;19912;-69
2023/12/04 11:58:22;;;;;;;;;;;;;;;;;;5051655;28;20387;-68
2023/12/04 12:00:48;;;;;;;;;;;;;;;;;;5051078;28;19951;-71
2023/12/04 12:03:14;;;;;;;;;;;;;;;;;;5052079;28;19909;-70
2023/12/04 12:05:41;;;;;;;;;;;;;;;;;;5051731;28;19996;-72
2023/12/04 12:08:07;;;;;;;;;;;;;;;;;;5051640;28;19913;-71
2023/12/04 12:10:33;;;;;;;;;;;;;;;;;;5052395;28;19980;-72
2023/12/04 12:12:59;;;;;;;;;;;;;;;;;;5054893;28;19909;-77
2023/12/04 12:15:25;;;;;;;;;;;;;;;;;;5050464;28;19920;-69
2023/12/04 12:17:51;;;;;;;;;;;;;;;;;;5049833;28;19927;-70
2023/12/04 12:20:17;;;;;;;;;;;;;;;;;;5047452;28;20286;-79
2023/12/04 12:22:54;;;;;;;;;;;;;;;;;;5125594;27;20327;-71
2023/12/04 12:27:24;;;;;;;;;;;;;;;;;;5086841;27;19920;-70
2023/12/04 12:29:50;;;;;;;;;;;;;;;;;;5085275;28;20412;-71
2023/12/04 12:32:16;;;;;;;;;;;;;;;;;;5086409;28;19978;-70
2023/12/04 12:37:35;;;;;;;;;;;;;;;;;;5088248;27;19923;-71
2023/12/04 12:40:01;;;;;;;;;;;;;;;;;;5088459;28;19912;-69
2023/12/04 12:42:26;;;;;;;;;;;;;;;;;;5084520;28;20394;-67
2023/12/04 12:46:05;;;;;;;;;;;;;;;;;;5088413;28;19912;-69
2023/12/04 12:49:17;;;;;;;;;;;;;;;;;;5087987;27;19916;-68
2023/12/04 12:53:51;;;;;;;;;;;;;;;;;;5066256;28;19943;-70
2023/12/04 12:56:17;;;;;;;;;;;;;;;;;;5066499;28;20424;-68
2023/12/04 12:58:48;;;;;;;;;;;;;;;;;;5066131;28;19912;-67
2023/12/04 13:01:14;;;;;;;;;;;;;;;;;;5067374;28;20359;-68
2023/12/04 13:06:56;;;;;;;;;;;;;;;;;;5087907;27;19913;-70
2023/12/04 13:12:57;;;;;;;;;;;;;;;;;;5090191;27;19916;-66
2023/12/04 13:18:13;;;;;;;;;;;;;;;;;;5090013;27;19916;-67
2023/12/04 13:24:09;;;;;;;;;;;;;;;;;;5090413;27;20365;-68
2023/12/04 13:28:59;;;;;;;;;;;;;;;;;;4968595;28;19918;-68
2023/12/04 13:33:59;;;;;;;;;;;;;;;;;;5090862;27;19913;-70
2023/12/04 13:36:27;;;;;;;;;;;;;;;;;;5090820;28;20460;-68
2023/12/04 13:40:34;;;;;;;;;;;;;;;;;;5090633;27;19923;-69
2023/12/04 13:47:01;;;;;;;;;;;;;;;;;;5088921;27;19923;-68
2023/12/04 13:49:27;;;;;;;;;;;;;;;;;;5090087;28;19912;-72
2023/12/04 13:51:53;;;;;;;;;;;;;;;;;;5090879;28;19915;-70
2023/12/04 13:54:35;;;;;;;;;;;;;;;;;;5088429;28;19909;-71
2023/12/04 13:57:01;;;;;;;;;;;;;;;;;;5091065;28;19919;-72
2023/12/04 14:01:05;;;;;;;;;;;;;;;;;;5088546;27;19912;-71
2023/12/04 14:03:33;;;;;;;;;;;;;;;;;;5089458;28;19913;-71
2023/12/04 14:09:11;;;;;;;;;;;;;;;;;;5109832;27;19922;-72
2023/12/04 14:13:21;;;;;;;;;;;;;;;;;;5110839;27;19916;-72
2023/12/04 14:15:47;;;;;;;;;;;;;;;;;;5108190;28;19919;-71
2023/12/04 14:18:13;;;;;;;;;;;;;;;;;;5106784;28;19908;-72
2023/12/04 14:21:49;;;;;;;;;;;;;;;;;;5086936;27;19922;-72
2023/12/04 14:24:15;;;;;;;;;;;;;;;;;;5087446;28;19913;-72
2023/12/04 14:26:41;;;;;;;;;;;;;;;;;;5087940;28;19913;-72
2023/12/04 14:29:22;;;;;;;;;;;;;;;;;;5086697;27;19916;-72
2023/12/04 14:31:48;;;;;;;;;;;;;;;;;;5087568;28;19919;-73
2023/12/04 14:34:14;;;;;;;;;;;;;;;;;;5089260;28;19912;-73
2023/12/04 14:36:40;;;;;;;;;;;;;;;;;;5090340;28;20374;-72
2023/12/04 14:39:06;;;;;;;;;;;;;;;;;;5091117;28;20360;-72
2023/12/04 14:41:32;;;;;;;;;;;;;;;;;;5090709;28;20338;-73
2023/12/04 14:43:58;;;;;;;;;;;;;;;;;;5091085;28;20318;-73
2023/12/04 14:46:24;;;;;;;;;;;;;;;;;;5089720;28;19955;-72
2023/12/04 14:48:50;;;;;;;;;;;;;;;;;;5090515;28;19943;-72
2023/12/04 14:51:16;;;;;;;;;;;;;;;;;;5089480;28;19914;-72
2023/12/04 14:54:03;;;;;;;;;;;;;;;;;;5089465;28;20367;-72
2023/12/04 15:12:23;;;;;;;;;;;;;;;;;;5091073;28;19951;-72
2023/12/04 15:14:56;;;;;;;;;;;;;;;;;;5091149;28;19931;-72
2023/12/04 15:20:17;;;;;;;;;;;;;;;;;;5090706;28;20285;-72
2023/12/04 15:22:42;;;;;;;;;;;;;;;;;;5090383;28;19995;-72
2023/12/04 15:25:11;;;;;;;;;;;;;;;;;;5089907;28;20005;-72
2023/12/04 15:27:37;;;;;;;;;;;;;;;;;;5096015;28;19943;-72
2023/12/04 15:30:05;;;;;;;;;;;;;;;;;;5110936;28;19908;-72
2023/12/04 15:32:30;;;;;;;;;;;;;;;;;;5110036;28;19998;-72
2023/12/04 15:34:57;;;;;;;;;;;;;;;;;;5110460;28;20007;-72
2023/12/04 15:37:23;;;;;;;;;;;;;;;;;;5110333;28;19998;-72
2023/12/04 15:39:49;;;;;;;;;;;;;;;;;;5101252;28;20005;-72
2023/12/04 15:42:15;;;;;;;;;;;;;;;;;;5096723;28;19908;-72
2023/12/04 15:44:41;;;;;;;;;;;;;;;;;;5096922;28;19915;-73
2023/12/04 15:47:07;;;;;;;;;;;;;;;;;;5096287;28;19979;-72
2023/12/04 15:49:33;;;;;;;;;;;;;;;;;;5096590;28;19965;-72
2023/12/04 15:51:59;;;;;;;;;;;;;;;;;;5077949;28;19908;-72
2023/12/04 15:54:25;;;;;;;;;;;;;;;;;;5096809;28;19940;-72
2023/12/04 15:56:51;;;;;;;;;;;;;;;;;;5096382;28;19908;-73
2023/12/04 15:59:17;;;;;;;;;;;;;;;;;;5096072;28;19908;-73
2023/12/04 16:01:43;;;;;;;;;;;;;;;;;;5096232;28;19912;-73
2023/12/04 16:04:09;;;;;;;;;;;;;;;;;;5096262;28;19913;-73
2023/12/04 16:06:36;;;;;;;;;;;;;;;;;;5096179;28;20313;-72
2023/12/04 16:09:03;;;;;;;;;;;;;;;;;;5096181;28;19920;-73
2023/12/04 16:11:29;;;;;;;;;;;;;;;;;;5096120;28;19915;-73
2023/12/04 16:13:55;;;;;;;;;;;;;;;;;;5095561;28;19908;-73
2023/12/04 16:16:21;;;;;;;;;;;;;;;;;;5096029;28;19908;-73
2023/12/04 16:18:49;;;;;;;;;;;;;;;;;;5077904;28;19978;-73
2023/12/04 16:21:15;;;;;;;;;;;;;;;;;;5095766;28;20375;-73
2023/12/04 16:23:41;;;;;;;;;;;;;;;;;;5096096;28;19908;-73
2023/12/04 16:26:07;;;;;;;;;;;;;;;;;;5096057;28;19915;-73
2023/12/04 16:28:33;;;;;;;;;;;;;;;;;;5077181;28;19920;-73
2023/12/04 16:30:59;;;;;;;;;;;;;;;;;;5095765;28;19908;-73
2023/12/04 16:33:26;;;;;;;;;;;;;;;;;;5095794;28;19946;-73
2023/12/04 16:35:52;;;;;;;;;;;;;;;;;;5092534;28;19919;-73
2023/12/04 16:38:19;;;;;;;;;;;;;;;;;;5095009;28;19912;-73
2023/12/04 16:40:45;;;;;;;;;;;;;;;;;;5095446;28;20004;-74
2023/12/04 16:43:11;;;;;;;;;;;;;;;;;;5095050;28;20435;-72
2023/12/04 16:45:36;;;;;;;;;;;;;;;;;;5095532;28;20276;-72
2023/12/04 16:48:03;;;;;;;;;;;;;;;;;;5094915;28;19963;-73
2023/12/04 16:50:29;;;;;;;;;;;;;;;;;;5094654;28;19915;-72
2023/12/04 16:52:55;;;;;;;;;;;;;;;;;;5094802;28;19908;-73
2023/12/04 16:55:21;;;;;;;;;;;;;;;;;;5095000;28;19948;-72
2023/12/04 16:57:47;;;;;;;;;;;;;;;;;;5095196;28;19922;-73
2023/12/04 17:00:13;;;;;;;;;;;;;;;;;;5094894;28;19908;-73
2023/12/04 17:02:39;;;;;;;;;;;;;;;;;;5094663;28;19930;-72
2023/12/04 17:05:05;;;;;;;;;;;;;;;;;;5076609;28;19908;-72
2023/12/04 17:07:31;;;;;;;;;;;;;;;;;;5094906;28;19969;-71
2023/12/04 17:09:57;;;;;;;;;;;;;;;;;;5094380;28;19908;-72
2023/12/04 17:12:23;;;;;;;;;;;;;;;;;;5094805;28;19915;-72
2023/12/04 17:14:49;;;;;;;;;;;;;;;;;;5095192;28;19915;-72
2023/12/04 17:17:15;;;;;;;;;;;;;;;;;;5094322;28;19908;-72
2023/12/04 17:19:41;;;;;;;;;;;;;;;;;;5094638;28;20377;-72
2023/12/04 17:22:07;;;;;;;;;;;;;;;;;;5094560;28;20284;-73
2023/12/04 17:24:33;;;;;;;;;;;;;;;;;;5094194;28;19908;-73
2023/12/04 17:26:59;;;;;;;;;;;;;;;;;;5094397;28;19912;-71
2023/12/04 17:29:26;;;;;;;;;;;;;;;;;;5076524;28;20330;-73
2023/12/04 17:31:52;;;;;;;;;;;;;;;;;;5094100;28;19919;-73
2023/12/04 17:34:19;;;;;;;;;;;;;;;;;;5094354;28;19908;-73
2023/12/04 17:36:45;;;;;;;;;;;;;;;;;;5076372;28;19930;-73
2023/12/04 17:39:15;;;;;;;;;;;;;;;;;;5094069;28;19923;-73